Time;durP1;ratioP1;P1;durP2;ratioP2;P2;SDS_P1;SDS_P2;PMS_P1;PMS_P2;Temp;Humidity;BMP_temperature;BMP_pressure;BME280_temperature;BME280_humidity;BME280_pressure;Samples;Min_cycle;Max_cycle;Signal;HPM_P1;HPM_P2
2023/12/15 00:00:01;;;;;;;15.07;9.97;;;;;;;2.94;67.01;102409.03;5015601;28;97148;-76
2023/12/15 00:02:26;;;;;;;14.47;9.00;;;;;;;2.91;66.63;102418.06;4994633;28;100100;-75
2023/12/15 00:04:52;;;;;;;13.80;9.27;;;;;;;2.85;66.66;102419.75;5012651;28;97555;-75
2023/12/15 00:07:17;;;;;;;16.43;10.20;;;;;;;2.84;66.44;102401.78;5012919;28;97098;-75
2023/12/15 00:09:43;;;;;;;17.10;9.67;;;;;;;2.80;66.83;102414.75;5012665;28;96808;-75
2023/12/15 00:12:08;;;;;;;16.63;9.50;;;;;;;2.73;66.59;102412.94;4999952;28;111351;-75
2023/12/15 00:14:33;;;;;;;15.37;8.90;;;;;;;2.68;66.67;102413.41;5013853;27;98358;-75
2023/12/15 00:16:59;;;;;;;16.90;10.37;;;;;;;2.67;66.62;102416.56;5013615;28;97558;-75
2023/12/15 00:19:24;;;;;;;17.00;9.90;;;;;;;2.61;66.48;102429.19;5012524;28;97141;-75
2023/12/15 00:21:50;;;;;;;19.50;9.60;;;;;;;2.57;66.46;102418.31;4991330;28;99112;-75
2023/12/15 00:24:15;;;;;;;14.33;8.70;;;;;;;2.57;66.90;102423.00;5014858;28;97122;-75
2023/12/15 00:26:40;;;;;;;16.40;9.07;;;;;;;2.57;66.34;102425.75;5012042;28;97764;-75
2023/12/15 00:29:06;;;;;;;13.63;8.77;;;;;;;2.57;67.02;102430.00;5013514;28;103235;-75
2023/12/15 00:31:31;;;;;;;23.57;10.87;;;;;;;2.61;66.65;102434.66;5009871;28;104407;-75
2023/12/15 00:33:56;;;;;;;18.60;10.23;;;;;;;2.64;66.75;102428.34;4995297;28;100014;-75
2023/12/15 00:36:22;;;;;;;16.30;9.50;;;;;;;2.65;66.63;102438.06;5013215;28;96680;-75
2023/12/15 00:38:47;;;;;;;15.30;8.23;;;;;;;2.65;66.91;102468.91;5017406;28;100712;-75
2023/12/15 00:41:12;;;;;;;17.00;10.10;;;;;;;2.68;66.57;102442.72;5015081;28;99483;-75
2023/12/15 00:43:38;;;;;;;17.30;9.80;;;;;;;2.70;66.40;102437.59;4998982;28;100259;-75
2023/12/15 00:46:04;;;;;;;20.50;10.50;;;;;;;2.68;66.61;102440.75;5016482;28;101943;-75
2023/12/15 00:48:29;;;;;;;17.30;10.00;;;;;;;2.68;67.00;102443.47;4998893;28;97269;-75
2023/12/15 00:50:54;;;;;;;23.40;10.17;;;;;;;2.69;66.73;102441.50;5013749;28;112951;-75
2023/12/15 00:53:20;;;;;;;20.97;10.80;;;;;;;2.69;66.67;102444.25;4999306;28;99337;-75
2023/12/15 00:55:46;;;;;;;21.93;10.90;;;;;;;2.68;66.73;102468.06;5013636;28;97416;-75
2023/12/15 00:58:13;;;;;;;21.63;11.20;;;;;;;2.70;66.65;102464.94;5000779;28;96949;-75
2023/12/15 01:00:38;;;;;;;19.23;10.20;;;;;;;2.66;66.63;102458.75;4999025;28;100994;-75
2023/12/15 01:03:04;;;;;;;17.10;9.63;;;;;;;2.67;66.53;102491.13;5013869;28;97246;-75
2023/12/15 01:05:29;;;;;;;17.33;10.00;;;;;;;2.70;66.64;102473.13;4993986;28;98722;-75
2023/12/15 01:07:54;;;;;;;21.37;11.43;;;;;;;2.69;66.59;102461.44;5013551;28;97147;-75
2023/12/15 01:10:20;;;;;;;20.67;11.13;;;;;;;2.73;66.35;102475.78;5013745;28;107491;-75
2023/12/15 01:12:45;;;;;;;21.20;10.60;;;;;;;2.73;66.73;102470.31;4999422;28;98619;-75
2023/12/15 01:15:10;;;;;;;22.77;10.80;;;;;;;2.74;66.81;102477.34;5016550;28;97511;-75
2023/12/15 01:17:36;;;;;;;20.50;10.83;;;;;;;2.76;66.54;102477.69;5013980;28;100330;-75
2023/12/15 01:20:02;;;;;;;20.43;11.23;;;;;;;2.78;66.70;102493.69;5012089;28;97781;-75
2023/12/15 01:22:27;;;;;;;17.80;9.87;;;;;;;2.82;66.69;102484.22;4998378;28;98990;-75
2023/12/15 01:24:52;;;;;;;19.20;11.30;;;;;;;2.83;66.54;102480.31;5010596;28;104991;-75
2023/12/15 01:27:18;;;;;;;23.67;12.10;;;;;;;2.81;66.79;102465.50;4995198;28;97251;-74
2023/12/15 01:29:43;;;;;;;24.53;12.53;;;;;;;2.85;66.82;102479.88;5017539;28;103353;-75
2023/12/15 01:32:08;;;;;;;26.00;12.40;;;;;;;2.89;66.76;102492.31;4997291;28;113671;-75
2023/12/15 01:34:33;;;;;;;22.20;13.27;;;;;;;2.89;66.79;102480.59;5017809;28;97544;-76
2023/12/15 01:36:59;;;;;;;20.70;11.67;;;;;;;2.91;66.93;102480.94;5018617;28;98692;-75
2023/12/15 01:39:24;;;;;;;24.77;12.90;;;;;;;2.89;67.06;102477.84;5016052;28;97354;-75
2023/12/15 01:41:49;;;;;;;25.83;10.93;;;;;;;2.90;66.78;102487.63;4999001;28;100285;-74
2023/12/15 01:44:15;;;;;;;23.63;13.20;;;;;;;2.91;66.93;102486.41;5000939;28;96820;-75
2023/12/15 01:46:40;;;;;;;23.77;11.67;;;;;;;2.93;66.85;102492.22;5018394;28;101789;-75
2023/12/15 01:49:06;;;;;;;24.23;11.73;;;;;;;2.94;67.16;102494.56;5013312;28;97646;-75
2023/12/15 01:51:31;;;;;;;20.77;11.87;;;;;;;2.97;67.13;102509.34;5019049;28;97101;-75
2023/12/15 01:53:57;;;;;;;29.23;13.10;;;;;;;2.99;66.98;102494.06;5003354;28;96951;-75
2023/12/15 01:56:22;;;;;;;20.70;12.10;;;;;;;3.03;66.96;102511.16;5016478;28;97735;-75
2023/12/15 01:58:47;;;;;;;21.40;11.20;;;;;;;3.04;66.85;102490.84;4997873;28;108274;-75
2023/12/15 02:01:13;;;;;;;32.60;12.10;;;;;;;3.06;67.05;102512.28;5001454;28;98946;-75
2023/12/15 02:03:38;;;;;;;23.90;10.77;;;;;;;3.09;67.21;102506.00;4995791;28;103663;-75
2023/12/15 02:06:04;;;;;;;20.53;11.37;;;;;;;3.08;67.12;102494.28;5014001;28;97296;-75
2023/12/15 02:08:29;;;;;;;23.97;12.13;;;;;;;3.11;66.97;102517.28;5012132;28;97956;-75
2023/12/15 02:10:54;;;;;;;23.53;11.73;;;;;;;3.14;67.15;102500.81;5014012;28;97142;-75
2023/12/15 02:13:20;;;;;;;24.80;10.00;;;;;;;3.16;67.08;102498.41;5013162;28;97693;-75
2023/12/15 02:15:45;;;;;;;20.40;11.10;;;;;;;3.18;66.95;102495.28;5016083;28;97599;-75
2023/12/15 02:18:11;;;;;;;23.20;11.70;;;;;;;3.16;66.90;102490.22;5014012;28;96831;-75
2023/12/15 02:20:36;;;;;;;23.80;11.20;;;;;;;3.20;66.88;102501.88;4995692;28;99329;-75
2023/12/15 02:23:02;;;;;;;35.43;12.50;;;;;;;3.19;67.13;102505.78;4995738;28;97352;-75
2023/12/15 02:25:27;;;;;;;23.63;12.77;;;;;;;3.24;67.48;102504.53;4996089;28;104954;-75
2023/12/15 02:27:53;;;;;;;29.70;11.80;;;;;;;3.24;67.03;102505.31;4997509;28;111028;-75
2023/12/15 02:30:19;;;;;;;23.43;12.40;;;;;;;3.24;67.14;102513.53;5012146;28;99864;-75
2023/12/15 02:32:44;;;;;;;19.50;11.20;;;;;;;3.27;67.19;102493.50;5013248;28;97038;-75
2023/12/15 02:35:11;;;;;;;22.90;11.57;;;;;;;3.30;67.30;102497.38;5011752;28;97143;-75
2023/12/15 02:37:37;;;;;;;23.60;12.50;;;;;;;3.31;67.26;102501.66;5016643;28;98746;-75
2023/12/15 02:40:03;;;;;;;21.47;11.17;;;;;;;3.34;67.32;102492.59;5014286;28;98503;-75
2023/12/15 02:42:29;;;;;;;26.70;12.30;;;;;;;3.39;67.08;102494.84;5015530;28;96937;-75
2023/12/15 02:44:54;;;;;;;23.13;12.60;;;;;;;3.41;67.27;102503.41;5016966;28;101614;-75
2023/12/15 02:47:19;;;;;;;25.87;12.80;;;;;;;3.45;67.41;102522.47;5012105;28;97769;-75
2023/12/15 02:49:45;;;;;;;24.93;13.20;;;;;;;3.46;67.22;102500.19;5014721;28;98511;-75
2023/12/15 02:52:10;;;;;;;26.63;12.77;;;;;;;3.47;67.31;102523.59;4995336;28;104434;-75
2023/12/15 02:54:35;;;;;;;22.47;12.90;;;;;;;3.49;67.29;102518.47;5017611;28;97168;-75
2023/12/15 02:57:01;;;;;;;24.67;13.53;;;;;;;3.51;67.53;102507.88;5012940;28;97436;-75
2023/12/15 02:59:26;;;;;;;30.70;14.43;;;;;;;3.52;67.14;102509.44;5012347;28;97196;-75
2023/12/15 03:01:51;;;;;;;28.63;14.77;;;;;;;3.50;67.42;102505.56;5009379;28;99442;-75
2023/12/15 03:04:17;;;;;;;29.90;15.73;;;;;;;3.55;67.63;102505.88;5011625;28;97122;-75
2023/12/15 03:06:42;;;;;;;28.37;14.10;;;;;;;3.59;67.60;102514.00;5013383;28;97733;-75
2023/12/15 03:09:08;;;;;;;31.00;14.13;;;;;;;3.60;67.58;102499.88;5013530;28;97221;-75
2023/12/15 03:11:34;;;;;;;25.17;13.70;;;;;;;3.62;67.61;102505.69;5013480;28;96793;-75
2023/12/15 03:14:00;;;;;;;30.10;15.23;;;;;;;3.62;67.56;102496.75;5016623;28;96999;-75
2023/12/15 03:16:25;;;;;;;47.33;15.47;;;;;;;3.66;67.58;102497.44;4996608;28;118539;-75
2023/12/15 03:18:51;;;;;;;28.53;14.10;;;;;;;3.71;67.44;102502.38;5012516;28;97535;-75
2023/12/15 03:21:16;;;;;;;29.93;15.50;;;;;;;3.72;67.43;102517.63;5012764;28;97260;-75
2023/12/15 03:23:41;;;;;;;30.70;13.87;;;;;;;3.72;67.60;102515.66;4996517;28;111328;-75
2023/12/15 03:26:07;;;;;;;31.93;15.67;;;;;;;3.72;67.49;102523.09;5012738;28;97609;-75
2023/12/15 03:28:32;;;;;;;29.70;14.57;;;;;;;3.75;67.77;102525.00;5000688;28;97452;-75
2023/12/15 03:30:57;;;;;;;33.30;14.13;;;;;;;3.75;67.65;102528.50;5014313;28;97243;-75
2023/12/15 03:33:24;;;;;;;27.90;14.87;;;;;;;3.76;67.57;102545.69;5009199;28;96864;-75
2023/12/15 03:35:50;;;;;;;36.30;15.70;;;;;;;3.78;67.59;102524.91;4994538;28;102992;-75
2023/12/15 03:38:15;;;;;;;29.40;15.27;;;;;;;3.80;67.57;102543.66;5013512;28;104889;-75
2023/12/15 03:40:40;;;;;;;27.00;14.67;;;;;;;3.81;67.56;102532.31;5017269;28;97379;-75
2023/12/15 03:43:06;;;;;;;33.80;16.27;;;;;;;3.81;67.54;102543.25;4998983;28;97294;-75
2023/12/15 03:45:31;;;;;;;29.63;15.07;;;;;;;3.82;67.70;102528.34;5013733;28;98816;-75
2023/12/15 03:47:56;;;;;;;33.70;16.30;;;;;;;3.81;67.58;102529.56;5012949;28;110402;-75
2023/12/15 03:50:22;;;;;;;29.50;15.00;;;;;;;3.85;67.63;102533.00;5015114;27;97113;-75
2023/12/15 03:52:47;;;;;;;32.17;16.03;;;;;;;3.88;67.57;102532.13;5013113;28;97243;-75
2023/12/15 03:55:12;;;;;;;33.77;16.20;;;;;;;3.90;67.83;102537.94;5013159;28;98789;-75
2023/12/15 03:57:38;;;;;;;31.93;16.40;;;;;;;3.91;67.85;102530.50;5016299;28;97093;-75
2023/12/15 04:00:04;;;;;;;35.53;16.43;;;;;;;3.91;67.64;102531.28;5016190;28;97401;-75
2023/12/15 04:02:30;;;;;;;32.27;16.13;;;;;;;3.93;67.70;102553.53;5015827;28;97258;-75
2023/12/15 04:04:55;;;;;;;36.73;16.40;;;;;;;3.92;67.64;102530.09;5014876;27;97473;-75
2023/12/15 04:07:20;;;;;;;33.10;15.17;;;;;;;3.97;67.76;102534.28;4990865;28;113734;-75
2023/12/15 04:09:45;;;;;;;31.07;15.00;;;;;;;3.97;67.70;102534.28;4999833;28;96870;-75
2023/12/15 04:12:11;;;;;;;29.30;14.93;;;;;;;3.98;67.95;102536.63;5012075;28;102293;-75
2023/12/15 04:14:36;;;;;;;34.80;16.47;;;;;;;3.98;67.54;102542.09;5015308;28;97610;-75
2023/12/15 04:17:01;;;;;;;33.57;14.50;;;;;;;4.01;67.74;102543.97;5014590;28;108216;-75
2023/12/15 04:19:27;;;;;;;33.30;15.43;;;;;;;4.00;67.71;102553.41;5015312;28;97558;-74
2023/12/15 04:21:52;;;;;;;30.60;14.97;;;;;;;4.03;67.94;102541.56;5013156;28;96819;-74
2023/12/15 04:24:18;;;;;;;35.93;15.57;;;;;;;4.04;67.66;102545.88;5016374;28;97991;-74
2023/12/15 04:26:44;;;;;;;36.83;15.67;;;;;;;4.04;67.73;102556.81;4997844;28;99823;-74
2023/12/15 04:29:09;;;;;;;31.03;14.63;;;;;;;4.06;67.57;102548.16;5000478;28;97083;-75
2023/12/15 04:31:34;;;;;;;29.20;14.20;;;;;;;4.04;67.92;102543.13;5011845;28;97284;-74
2023/12/15 04:34:00;;;;;;;37.57;15.97;;;;;;;4.08;67.75;102551.25;5012884;28;97265;-75
2023/12/15 04:36:26;;;;;;;32.67;16.00;;;;;;;4.07;67.81;102561.47;4998956;28;101740;-75
2023/12/15 04:38:52;;;;;;;27.17;14.37;;;;;;;4.10;67.69;102559.06;5012686;28;96877;-75
2023/12/15 04:41:23;;;;;;;33.30;15.17;;;;;;;4.13;67.64;102556.25;5014459;28;97760;-75
2023/12/15 04:43:49;;;;;;;34.97;16.67;;;;;;;4.12;67.84;102573.88;5013923;28;97828;-75
2023/12/15 04:46:32;;;;;;;28.57;14.33;;;;;;;4.13;67.89;102552.72;5015737;28;97492;-75
2023/12/15 04:49:01;;;;;;;32.73;15.33;;;;;;;4.15;67.99;102562.06;4998594;28;98065;-75
2023/12/15 04:51:26;;;;;;;34.80;14.83;;;;;;;4.16;67.81;102562.84;5009787;27;97195;-75
2023/12/15 04:53:52;;;;;;;29.17;14.80;;;;;;;4.15;67.99;102555.81;5012814;28;97205;-75
2023/12/15 04:56:17;;;;;;;34.47;15.67;;;;;;;4.19;68.06;102562.00;5008342;28;97485;-75
2023/12/15 04:58:43;;;;;;;31.67;14.50;;;;;;;4.19;67.70;102559.25;4997982;28;105805;-75
2023/12/15 05:01:10;;;;;;;36.30;17.23;;;;;;;4.19;67.82;102559.25;5013989;28;97174;-75
2023/12/15 05:03:35;;;;;;;34.10;15.70;;;;;;;4.20;67.71;102552.56;5010837;28;97966;-74
2023/12/15 05:06:01;;;;;;;36.87;16.17;;;;;;;4.21;67.96;102551.38;5009305;28;98648;-75
2023/12/15 05:08:26;;;;;;;28.50;13.80;;;;;;;4.20;67.84;102558.06;5012727;28;96740;-75
2023/12/15 05:10:51;;;;;;;35.47;15.87;;;;;;;4.23;68.03;102551.72;5010403;28;107657;-75
2023/12/15 05:13:17;;;;;;;35.10;15.60;;;;;;;4.23;67.72;102557.22;5012890;28;99288;-74
2023/12/15 05:15:42;;;;;;;42.57;16.53;;;;;;;4.24;68.01;102553.25;4992855;28;101024;-75
2023/12/15 05:18:07;;;;;;;37.37;15.93;;;;;;;4.22;68.00;102569.34;5011850;28;101193;-75
2023/12/15 05:20:36;;;;;;;44.23;18.30;;;;;;;4.23;68.29;102558.00;5013148;28;100647;-75
2023/12/15 05:23:03;;;;;;;35.43;17.10;;;;;;;4.23;68.29;102557.22;5010763;28;97648;-75
2023/12/15 05:25:28;;;;;;;35.33;16.10;;;;;;;4.26;67.95;102568.06;5012338;28;97127;-75
2023/12/15 05:27:53;;;;;;;40.17;17.73;;;;;;;4.28;67.78;102570.38;5012373;28;97268;-75
2023/12/15 05:30:19;;;;;;;41.20;17.00;;;;;;;4.29;68.09;102563.72;5014858;28;97452;-75
2023/12/15 05:32:44;;;;;;;33.80;16.50;;;;;;;4.30;68.15;102576.22;4999866;28;99091;-75
2023/12/15 05:35:10;;;;;;;34.67;16.37;;;;;;;4.32;68.01;102588.28;5017501;28;107140;-75
2023/12/15 05:37:35;;;;;;;42.20;17.70;;;;;;;4.35;68.14;102583.94;4997295;28;97793;-75
2023/12/15 05:40:00;;;;;;;41.17;17.97;;;;;;;4.36;68.18;102588.22;5017391;28;97270;-75
2023/12/15 05:42:25;;;;;;;39.47;16.40;;;;;;;4.37;67.95;102604.22;5016017;28;98823;-75
2023/12/15 05:44:51;;;;;;;43.17;19.17;;;;;;;4.38;68.19;102613.22;5016015;28;97356;-75
2023/12/15 05:47:17;;;;;;;43.00;17.73;;;;;;;4.41;67.95;102618.63;5013522;28;97042;-75
2023/12/15 05:49:42;;;;;;;42.90;18.20;;;;;;;4.42;68.03;102611.19;5013797;28;97077;-75
2023/12/15 05:52:09;;;;;;;35.83;17.43;;;;;;;4.44;68.11;102622.47;5013567;28;106895;-76
2023/12/15 05:54:35;;;;;;;38.70;17.73;;;;;;;4.43;67.79;102626.44;5013343;28;97723;-75
2023/12/15 05:57:00;;;;;;;42.50;17.97;;;;;;;4.41;68.32;102621.38;5016612;28;97405;-75
2023/12/15 05:59:26;;;;;;;44.90;18.90;;;;;;;4.43;68.20;102620.97;5015977;28;97192;-75
2023/12/15 06:01:51;;;;;;;47.67;19.17;;;;;;;4.44;68.22;102636.19;5009194;28;97406;-75
2023/12/15 06:04:17;;;;;;;41.67;18.60;;;;;;;4.47;68.22;102624.38;5013475;28;98410;-75
2023/12/15 06:06:42;;;;;;;52.03;20.57;;;;;;;4.50;68.25;102627.03;5010350;28;97586;-75
2023/12/15 06:09:09;;;;;;;45.63;19.40;;;;;;;4.51;68.16;102623.09;5011223;28;101522;-75
2023/12/15 06:11:41;;;;;;;42.53;18.90;;;;;;;4.54;68.30;102638.69;4997220;28;99176;-75
2023/12/15 06:14:07;;;;;;;47.57;20.70;;;;;;;4.56;68.29;102628.06;5015697;27;98076;-75
2023/12/15 06:16:32;;;;;;;44.80;21.67;;;;;;;4.58;68.45;102620.19;4998469;28;97892;-75
2023/12/15 06:18:58;;;;;;;49.53;20.30;;;;;;;4.61;68.28;102637.75;5020175;28;97329;-75
2023/12/15 06:21:25;;;;;;;41.33;19.77;;;;;;;4.63;68.27;102644.34;5002437;28;100098;-75
2023/12/15 06:23:51;;;;;;;47.73;19.70;;;;;;;4.65;68.34;102641.19;5015466;28;97551;-75
2023/12/15 06:26:18;;;;;;;46.77;21.07;;;;;;;4.67;68.37;102641.53;5015172;28;97036;-75
2023/12/15 06:28:44;;;;;;;51.23;21.70;;;;;;;4.68;68.45;102648.56;5018744;28;96875;-75
2023/12/15 06:31:09;;;;;;;48.80;20.20;;;;;;;4.67;68.30;102650.53;5016346;28;97054;-75
2023/12/15 06:33:34;;;;;;;49.73;20.20;;;;;;;4.68;68.19;102641.13;5017875;28;107740;-75
2023/12/15 06:35:59;;;;;;;48.63;21.30;;;;;;;4.69;68.43;102647.38;4999839;28;111524;-75
2023/12/15 06:38:25;;;;;;;47.40;21.07;;;;;;;4.72;68.42;102663.75;5016489;28;109890;-75
2023/12/15 06:40:50;;;;;;;47.73;21.40;;;;;;;4.77;68.41;102651.53;4999061;28;99046;-75
2023/12/15 06:43:15;;;;;;;48.80;21.80;;;;;;;4.78;68.54;102647.56;5015620;28;112920;-75
2023/12/15 06:45:41;;;;;;;47.20;21.43;;;;;;;4.77;68.38;102666.00;5016165;28;97158;-75
2023/12/15 06:48:06;;;;;;;45.70;21.13;;;;;;;4.78;68.65;102650.31;5001234;28;107401;-75
2023/12/15 06:50:31;;;;;;;47.57;21.07;;;;;;;4.81;68.54;102654.94;5017895;28;106948;-75
2023/12/15 06:52:56;;;;;;;59.50;22.73;;;;;;;4.81;68.57;102652.22;5017156;28;97648;-75
2023/12/15 06:55:22;;;;;;;49.87;21.67;;;;;;;4.86;68.56;102657.19;5001347;28;112511;-76
2023/12/15 06:57:47;;;;;;;48.97;21.93;;;;;;;4.86;68.70;102654.44;5015401;28;108736;-75
2023/12/15 07:00:13;;;;;;;51.80;21.77;;;;;;;4.88;68.49;102659.50;5018662;28;99051;-75
2023/12/15 07:02:38;;;;;;;48.33;22.40;;;;;;;4.89;68.44;102659.06;5014346;28;98239;-75
2023/12/15 07:05:04;;;;;;;51.70;23.13;;;;;;;4.91;68.72;102644.94;5016515;28;97692;-75
2023/12/15 07:07:29;;;;;;;46.47;20.30;;;;;;;4.94;68.74;102660.53;5016701;28;97218;-75
2023/12/15 07:09:55;;;;;;;49.97;21.80;;;;;;;4.90;68.57;102640.63;4999319;28;98947;-75
2023/12/15 07:12:20;;;;;;;51.20;21.70;;;;;;;4.94;68.60;102647.59;5013883;28;97559;-75
2023/12/15 07:14:45;;;;;;;49.43;22.30;;;;;;;4.97;68.51;102640.47;5015887;28;97265;-75
2023/12/15 07:17:11;;;;;;;51.17;20.40;;;;;;;4.97;68.68;102641.25;5018668;28;96748;-75
2023/12/15 07:19:36;;;;;;;51.03;21.07;;;;;;;4.97;68.60;102649.47;5016180;28;98058;-75
2023/12/15 07:22:01;;;;;;;54.10;20.73;;;;;;;5.01;68.66;102657.63;5015416;28;97874;-75
2023/12/15 07:24:27;;;;;;;46.57;20.10;;;;;;;5.02;68.80;102650.94;5011396;27;97036;-75
2023/12/15 07:26:52;;;;;;;52.23;21.90;;;;;;;5.03;68.69;102666.97;5014032;28;96874;-75
2023/12/15 07:29:21;;;;;;;55.30;20.90;;;;;;;5.07;68.66;102666.88;5015549;28;97277;-75
2023/12/15 07:31:46;;;;;;;48.60;21.27;;;;;;;5.02;68.88;102667.41;5012120;28;97730;-75
2023/12/15 07:34:12;;;;;;;58.47;22.63;;;;;;;5.07;68.92;102670.38;5000663;28;97276;-75
2023/12/15 07:36:37;;;;;;;46.63;21.47;;;;;;;5.09;68.87;102676.22;5013908;28;97274;-75
2023/12/15 07:39:02;;;;;;;47.47;20.23;;;;;;;5.11;68.97;102675.78;5012160;28;108096;-75
2023/12/15 07:41:28;;;;;;;51.83;21.80;;;;;;;5.13;69.06;102676.13;5015865;28;97840;-75
2023/12/15 07:43:53;;;;;;;44.73;19.80;;;;;;;5.16;69.02;102676.03;4999012;28;102744;-75
2023/12/15 07:46:19;;;;;;;47.33;21.20;;;;;;;5.17;69.00;102674.81;4996580;28;97315;-75
2023/12/15 07:48:45;;;;;;;47.47;20.53;;;;;;;5.20;68.98;102686.91;5013360;28;97053;-75
2023/12/15 07:51:21;;;;;;;40.13;19.20;;;;;;;5.22;68.92;102690.78;5014826;28;97268;-75
2023/12/15 07:53:47;;;;;;;39.00;18.40;;;;;;;5.26;68.91;102707.16;5012632;28;97833;-75
2023/12/15 07:56:26;;;;;;;42.30;20.07;;;;;;;5.29;69.04;102701.59;4999666;28;96830;-75
2023/12/15 07:58:53;;;;;;;42.10;18.37;;;;;;;5.30;68.97;102702.38;5014470;28;97883;-75
2023/12/15 08:01:20;;;;;;;40.30;18.40;;;;;;;5.32;68.93;102706.22;5008689;28;97709;-75
2023/12/15 08:03:46;;;;;;;37.97;17.20;;;;;;;5.36;69.01;102712.41;5011795;28;96909;-75
2023/12/15 08:06:13;;;;;;;41.57;19.83;;;;;;;5.37;68.88;102707.66;5015208;28;97416;-75
2023/12/15 08:08:39;;;;;;;39.57;18.77;;;;;;;5.39;68.85;102728.00;5011375;28;97138;-75
2023/12/15 08:11:05;;;;;;;37.37;17.57;;;;;;;5.41;68.95;102722.84;4999164;28;100412;-75
2023/12/15 08:13:30;;;;;;;37.93;18.50;;;;;;;5.44;68.95;102730.22;5016292;28;97206;-75
2023/12/15 08:15:56;;;;;;;37.73;17.70;;;;;;;5.47;68.71;102726.63;5013038;28;97406;-75
2023/12/15 08:18:21;;;;;;;37.77;17.47;;;;;;;5.50;68.88;102736.75;5014504;28;97167;-75
2023/12/15 08:20:47;;;;;;;40.73;18.37;;;;;;;5.53;68.97;102733.16;5015582;28;97656;-75
2023/12/15 08:23:16;;;;;;;36.83;17.10;;;;;;;5.54;68.99;102739.41;5011696;28;97434;-75
2023/12/15 08:25:41;;;;;;;40.73;16.30;;;;;;;5.56;68.88;102737.00;5013130;28;97385;-75
2023/12/15 08:28:09;;;;;;;40.57;18.57;;;;;;;5.57;68.84;102744.81;5013458;28;97903;-75
2023/12/15 08:30:35;;;;;;;35.23;17.67;;;;;;;5.61;68.95;102750.19;5011114;28;97153;-75
2023/12/15 08:33:01;;;;;;;39.07;17.60;;;;;;;5.61;68.92;102769.41;5016229;28;97722;-75
2023/12/15 08:35:27;;;;;;;40.73;18.43;;;;;;;5.66;68.94;102782.66;5013183;28;97056;-75
2023/12/15 08:37:54;;;;;;;42.10;17.80;;;;;;;5.68;68.90;102779.44;5009647;28;98607;-75
2023/12/15 08:40:19;;;;;;;47.37;17.60;;;;;;;5.68;68.73;102780.25;5015489;28;97413;-75
2023/12/15 08:42:45;;;;;;;46.13;18.93;;;;;;;5.68;68.91;102774.75;5011110;28;96719;-75
2023/12/15 08:45:10;;;;;;;41.60;18.13;;;;;;;5.67;68.83;102773.22;5010693;28;97038;-76
2023/12/15 08:47:35;;;;;;;35.80;16.97;;;;;;;5.69;68.88;102797.50;5013230;28;97793;-75
2023/12/15 08:50:01;;;;;;;38.73;17.40;;;;;;;5.69;68.96;102801.03;5010867;28;108668;-75
2023/12/15 08:52:27;;;;;;;36.67;17.53;;;;;;;5.71;68.93;102811.56;4996495;28;97156;-75
2023/12/15 08:54:52;;;;;;;41.87;18.57;;;;;;;5.72;69.05;102811.13;5016127;28;97207;-75
2023/12/15 08:57:18;;;;;;;48.37;18.43;;;;;;;5.75;68.90;102823.22;5013225;28;98171;-75
2023/12/15 08:59:43;;;;;;;41.70;18.00;;;;;;;5.77;69.00;102813.38;5012855;28;106077;-75
2023/12/15 09:02:08;;;;;;;43.83;18.00;;;;;;;5.79;69.01;102816.44;5011208;28;96871;-76
2023/12/15 09:04:34;;;;;;;37.20;17.10;;;;;;;5.77;68.94;102815.31;5013593;27;97292;-75
2023/12/15 09:06:59;;;;;;;37.33;16.30;;;;;;;5.75;68.96;102832.25;5011776;28;98825;-75
2023/12/15 09:09:25;;;;;;;36.17;17.80;;;;;;;5.78;69.05;102828.66;5012901;28;97110;-75
2023/12/15 09:11:50;;;;;;;39.13;17.80;;;;;;;5.83;69.17;102833.63;5003533;28;97363;-75
2023/12/15 09:14:16;;;;;;;38.07;17.50;;;;;;;5.87;69.11;102841.78;5011657;28;97170;-76
2023/12/15 09:16:42;;;;;;;40.03;17.00;;;;;;;5.87;69.07;102839.03;4993895;27;98945;-75
2023/12/15 09:19:08;;;;;;;37.13;17.43;;;;;;;5.88;69.23;102849.59;5008831;28;97284;-75
2023/12/15 09:21:34;;;;;;;37.80;16.30;;;;;;;5.91;69.05;102847.97;5013250;28;97537;-75
2023/12/15 09:23:59;;;;;;;40.13;16.80;;;;;;;5.95;69.11;102856.88;5010186;28;97096;-75
2023/12/15 09:26:25;;;;;;;38.67;17.77;;;;;;;5.97;68.88;102868.22;5012891;28;98535;-75
2023/12/15 09:28:51;;;;;;;35.60;17.67;;;;;;;5.96;69.09;102867.44;5009336;28;97425;-75
2023/12/15 09:31:16;;;;;;;35.40;17.37;;;;;;;6.01;69.16;102857.91;5011575;28;97025;-75
2023/12/15 09:33:41;;;;;;;38.77;18.27;;;;;;;6.04;69.09;102881.78;5010523;28;97191;-75
2023/12/15 09:36:08;;;;;;;46.70;18.20;;;;;;;6.07;69.14;102873.44;5012780;28;97120;-76
2023/12/15 09:38:33;;;;;;;47.20;18.13;;;;;;;6.10;69.15;102875.34;4997729;28;100395;-75
2023/12/15 09:40:58;;;;;;;38.97;18.20;;;;;;;6.16;69.13;102883.81;5013093;28;105168;-76
2023/12/15 09:43:23;;;;;;;36.63;17.67;;;;;;;6.17;69.21;102888.91;5012121;28;97256;-75
2023/12/15 09:45:49;;;;;;;44.70;18.47;;;;;;;6.21;69.24;102891.53;4992621;28;99500;-75
2023/12/15 09:48:16;;;;;;;41.47;18.17;;;;;;;6.24;69.16;102894.19;4998817;28;100755;-75
2023/12/15 09:50:49;;;;;;;35.70;17.17;;;;;;;6.28;69.10;102921.63;5015467;28;96913;-76
2023/12/15 09:53:14;;;;;;;34.43;17.30;;;;;;;6.31;69.11;102907.75;4996512;28;97202;-76
2023/12/15 09:55:41;;;;;;;33.60;17.67;;;;;;;6.36;69.30;102898.22;5014610;28;96939;-76
2023/12/15 09:58:06;;;;;;;36.70;17.60;;;;;;;6.44;69.26;102902.31;4995275;28;99653;-76
2023/12/15 10:00:32;;;;;;;37.03;17.40;;;;;;;6.49;69.43;102904.56;5014516;28;96784;-76
2023/12/15 10:03:00;;;;;;;34.93;18.33;;;;;;;6.52;69.27;102906.44;4997704;28;97552;-76
2023/12/15 10:05:26;;;;;;;34.63;17.27;;;;;;;6.57;69.29;102897.66;5018633;28;97457;-76
2023/12/15 10:07:52;;;;;;;40.83;18.80;;;;;;;6.60;69.19;102899.53;5014223;28;97064;-75
2023/12/15 10:10:18;;;;;;;39.73;17.90;;;;;;;6.62;69.22;102908.16;5016934;28;96911;-76
2023/12/15 10:12:43;;;;;;;41.83;18.00;;;;;;;6.63;69.15;102909.72;5016329;28;97761;-76
2023/12/15 10:15:12;;;;;;;40.90;18.60;;;;;;;6.66;69.14;102908.84;5012095;28;97397;-75
2023/12/15 10:17:37;;;;;;;38.57;17.40;;;;;;;6.70;69.36;102914.25;5013857;28;98164;-76
2023/12/15 10:20:08;;;;;;;38.73;18.40;;;;;;;6.75;69.17;102924.72;5015351;28;97813;-76
2023/12/15 10:22:34;;;;;;;33.30;17.50;;;;;;;6.73;69.25;102922.41;5002191;28;97976;-76
2023/12/15 10:24:59;;;;;;;33.00;17.20;;;;;;;6.82;69.27;102927.28;5011008;28;96761;-76
2023/12/15 10:27:25;;;;;;;37.00;16.87;;;;;;;6.82;69.21;102933.56;5015186;28;97301;-76
2023/12/15 10:29:50;;;;;;;32.67;17.23;;;;;;;6.86;69.29;102936.97;5014491;28;97279;-76
2023/12/15 10:32:15;;;;;;;37.90;17.80;;;;;;;6.88;69.25;102934.56;5011404;28;97252;-76
2023/12/15 10:34:41;;;;;;;43.23;18.43;;;;;;;6.89;69.18;102947.13;5019107;28;97985;-76
2023/12/15 10:37:07;;;;;;;32.10;16.63;;;;;;;6.91;69.23;102928.19;5015198;28;97396;-76
2023/12/15 10:39:35;;;;;;;37.30;17.60;;;;;;;6.93;69.09;102936.00;5012500;28;97006;-76
2023/12/15 10:42:03;;;;;;;38.67;18.40;;;;;;;6.93;69.38;102934.03;4995984;28;97075;-76
2023/12/15 10:44:39;;;;;;;39.57;17.90;;;;;;;6.97;69.25;102926.44;4996665;28;100527;-76
2023/12/15 10:47:06;;;;;;;40.00;18.93;;;;;;;7.00;69.38;102936.59;5017433;28;98165;-76
2023/12/15 10:49:32;;;;;;;48.03;20.50;;;;;;;7.03;69.28;102943.19;5016966;28;97053;-76
2023/12/15 10:51:58;;;;;;;36.70;18.07;;;;;;;7.07;69.23;102932.88;5013564;28;97828;-76
2023/12/15 10:54:25;;;;;;;38.43;18.83;;;;;;;7.08;69.14;102939.91;4993401;28;101742;-76
2023/12/15 10:56:51;;;;;;;38.40;18.67;;;;;;;7.11;69.10;102949.28;5017056;28;97090;-77
2023/12/15 10:59:17;;;;;;;40.17;18.40;;;;;;;7.12;69.11;102948.84;5015628;28;97157;-76
2023/12/15 11:01:46;;;;;;;37.47;17.77;;;;;;;7.10;69.21;102939.47;5000203;28;97142;-76
2023/12/15 11:04:23;;;;;;;38.73;18.73;;;;;;;7.13;69.01;102947.63;5013285;27;97951;-76
2023/12/15 11:06:49;;;;;;;42.40;18.37;;;;;;;7.11;69.09;102949.28;5013080;28;98840;-77
2023/12/15 11:09:34;;;;;;;33.67;18.27;;;;;;;7.09;69.20;102940.69;5011925;28;97513;-76